createdAt,value
2019-06-08T00:01:53.511Z,16.28
2019-06-08T00:04:21.173Z,16.27
2019-06-08T00:06:48.742Z,16.27
2019-06-08T00:09:17.047Z,16.29
2019-06-08T00:11:46.697Z,16.29
2019-06-08T00:14:15.374Z,16.30
2019-06-08T00:16:43.013Z,16.27
2019-06-08T00:19:11.241Z,16.27
2019-06-08T00:21:39.125Z,16.27
2019-06-08T00:24:09.237Z,16.23
2019-06-08T00:26:37.307Z,16.21
2019-06-08T00:29:04.960Z,16.21
2019-06-08T00:31:32.732Z,16.22
2019-06-08T00:34:00.299Z,16.23
2019-06-08T00:36:28.396Z,16.23
2019-06-08T00:38:59.101Z,16.23
2019-06-08T00:41:26.812Z,16.14
2019-06-08T00:43:54.931Z,16.14
2019-06-08T00:46:23.602Z,16.09
2019-06-08T00:48:51.793Z,16.08
2019-06-08T00:51:22.745Z,16.07
2019-06-08T00:53:50.630Z,16.07
2019-06-08T00:56:19.231Z,16.05
2019-06-08T00:58:47.026Z,15.97
2019-06-08T01:01:14.841Z,15.94
2019-06-08T01:03:43.280Z,15.94
2019-06-08T01:06:11.787Z,15.89
2019-06-08T01:08:39.540Z,15.85
2019-06-08T01:11:07.188Z,15.81
2019-06-08T01:13:35.189Z,15.81
2019-06-08T01:16:02.688Z,15.78
2019-06-08T01:18:30.901Z,15.78
2019-06-08T01:20:58.862Z,15.73
2019-06-08T01:23:27.902Z,15.72
2019-06-08T01:25:55.521Z,15.72
2019-06-08T01:28:23.963Z,15.69
2019-06-08T01:30:52.070Z,15.69
2019-06-08T01:33:20.399Z,15.66
2019-06-08T01:35:48.108Z,15.66
2019-06-08T01:38:15.779Z,15.62
2019-06-08T01:40:43.851Z,15.61
2019-06-08T01:43:11.468Z,15.61
2019-06-08T01:45:39.163Z,15.62
2019-06-08T01:48:19.455Z,15.60
2019-06-08T01:50:36.034Z,15.58
2019-06-08T01:53:03.697Z,15.55
2019-06-08T01:55:33.358Z,15.51
2019-06-08T01:58:01.065Z,15.48
2019-06-08T02:00:30.655Z,15.45
2019-06-08T02:02:58.439Z,15.45
2019-06-08T02:05:26.149Z,15.40
2019-06-08T02:07:53.865Z,15.31
2019-06-08T02:10:21.525Z,15.31
2019-06-08T02:12:49.507Z,15.22
2019-06-08T02:15:19.873Z,15.17
2019-06-08T02:17:47.482Z,15.13
2019-06-08T02:20:17.798Z,15.13
2019-06-08T02:22:45.890Z,15.13
2019-06-08T02:25:16.207Z,15.16
2019-06-08T02:27:44.262Z,15.16
2019-06-08T02:30:11.844Z,15.18
2019-06-08T02:32:42.981Z,15.24
2019-06-08T02:35:10.638Z,15.24
2019-06-08T02:37:39.772Z,15.25
2019-06-08T02:40:07.704Z,15.26
2019-06-08T02:42:40.227Z,15.31
2019-06-08T02:45:08.139Z,15.33
2019-06-08T02:47:36.893Z,15.36
2019-06-08T02:50:06.532Z,15.39
2019-06-08T02:52:36.158Z,15.41
2019-06-08T02:55:03.595Z,15.41
2019-06-08T02:57:35.598Z,15.45
2019-06-08T03:00:06.449Z,15.46
2019-06-08T03:02:36.262Z,15.49
2019-06-08T03:05:04.080Z,15.51
2019-06-08T03:07:32.247Z,15.52
2019-06-08T03:10:00.127Z,15.53
2019-06-08T03:12:31.111Z,15.53
2019-06-08T03:14:59.540Z,15.55
2019-06-08T03:17:27.306Z,15.60
2019-06-08T03:19:54.971Z,15.63
2019-06-08T03:22:22.740Z,15.63
2019-06-08T03:24:51.209Z,15.64
2019-06-08T03:27:18.907Z,15.64
2019-06-08T03:29:47.165Z,15.67
2019-06-08T03:32:15.236Z,15.68
2019-06-08T03:34:53.701Z,15.68
2019-06-08T03:37:12.288Z,15.69
2019-06-08T03:39:41.381Z,15.68
2019-06-08T03:42:12.864Z,15.68
2019-06-08T03:44:42.819Z,15.68
2019-06-08T03:47:11.886Z,15.67
2019-06-08T03:49:47.538Z,15.63
2019-06-08T03:52:09.253Z,15.60
2019-06-08T03:54:40.689Z,15.60
2019-06-08T03:57:10.022Z,15.58
2019-06-08T03:59:41.070Z,15.52
2019-06-08T04:02:09.711Z,15.50
2019-06-08T04:04:37.874Z,15.50
2019-06-08T04:07:06.886Z,15.46
2019-06-08T04:09:34.538Z,15.46
2019-06-08T04:12:03.415Z,15.44
2019-06-08T04:14:31.116Z,15.41
2019-06-08T04:17:00.374Z,15.38
2019-06-08T04:19:28.140Z,15.38
2019-06-08T04:21:55.728Z,15.35
2019-06-08T04:24:23.369Z,15.35
2019-06-08T04:26:52.752Z,15.32
2019-06-08T04:29:20.526Z,15.32
2019-06-08T04:31:50.003Z,15.28
2019-06-08T04:34:17.582Z,15.28
2019-06-08T04:36:46.408Z,15.27
2019-06-08T04:39:14.904Z,15.26
2019-06-08T04:41:43.160Z,15.26
2019-06-08T04:44:12.267Z,15.23
2019-06-08T04:46:40.771Z,15.21
2019-06-08T04:49:08.976Z,15.20
2019-06-08T04:51:36.651Z,15.19
2019-06-08T04:54:04.824Z,15.17
2019-06-08T04:56:32.382Z,15.16
2019-06-08T04:59:00.111Z,15.16
2019-06-08T05:01:28.117Z,15.14
2019-06-08T05:03:55.767Z,15.13
2019-06-08T05:06:25.969Z,15.12
2019-06-08T05:08:53.560Z,15.12
2019-06-08T05:11:21.665Z,15.10
2019-06-08T05:13:49.860Z,15.10
2019-06-08T05:16:17.620Z,15.10
2019-06-08T05:18:45.334Z,15.10
2019-06-08T05:21:13.411Z,15.10
2019-06-08T05:23:41.364Z,15.10
2019-06-08T05:26:09.266Z,15.09
2019-06-08T05:28:36.907Z,15.09
2019-06-08T05:31:04.577Z,15.10
2019-06-08T05:33:32.227Z,15.10
2019-06-08T05:35:59.976Z,15.09
2019-06-08T05:38:30.624Z,15.11
2019-06-08T05:40:58.297Z,15.12
2019-06-08T05:43:26.055Z,15.14
2019-06-08T05:45:53.812Z,15.20
2019-06-08T05:48:21.871Z,15.20
2019-06-08T05:51:00.399Z,15.32
2019-06-08T05:53:18.849Z,15.27
2019-06-08T05:55:46.511Z,15.26
2019-06-08T05:58:14.677Z,15.26
2019-06-08T06:00:42.265Z,15.26
2019-06-08T06:03:09.955Z,15.24
2019-06-08T06:05:37.960Z,15.27
2019-06-08T06:08:18.019Z,15.32
2019-06-08T06:10:38.213Z,15.32
2019-06-08T06:13:06.339Z,15.36
2019-06-08T06:15:33.994Z,15.37
2019-06-08T06:18:01.653Z,15.36
2019-06-08T06:20:32.207Z,15.50
2019-06-08T06:22:59.993Z,15.50
2019-06-08T06:25:27.715Z,15.66
2019-06-08T06:27:55.755Z,15.66
2019-06-08T06:30:23.485Z,15.71
2019-06-08T06:32:51.937Z,15.79
2019-06-08T06:35:19.913Z,15.83
2019-06-08T06:37:47.814Z,15.83
2019-06-08T06:40:15.302Z,15.89
2019-06-08T06:42:44.061Z,16.13
2019-06-08T06:45:11.630Z,16.28
2019-06-08T06:47:39.097Z,16.32
2019-06-08T06:50:06.958Z,16.32
2019-06-08T06:52:34.531Z,16.35
2019-06-08T06:55:02.114Z,16.35
2019-06-08T06:57:30.028Z,16.25
2019-06-08T06:59:57.587Z,16.15
2019-06-08T07:02:25.213Z,16.11
2019-06-08T07:04:56.312Z,16.11
2019-06-08T07:07:22.245Z,16.14
2019-06-08T07:09:50.527Z,16.14
2019-06-08T07:12:18.782Z,16.17
2019-06-08T07:14:47.000Z,16.19
2019-06-08T07:17:14.899Z,16.19
2019-06-08T07:19:44.156Z,16.30
2019-06-08T07:22:11.683Z,16.27
2019-06-08T07:24:39.337Z,16.27
2019-06-08T07:27:08.088Z,16.20
2019-06-08T07:29:35.722Z,16.30
2019-06-08T07:32:03.292Z,16.33
2019-06-08T07:34:31.152Z,16.33
2019-06-08T07:36:59.565Z,16.38
2019-06-08T07:39:27.222Z,16.42
2019-06-08T07:41:56.157Z,16.42
2019-06-08T07:44:23.729Z,16.59
2019-06-08T07:46:51.444Z,16.70
2019-06-08T07:49:19.359Z,16.69
2019-06-08T07:51:58.894Z,16.69
2019-06-08T07:54:19.075Z,16.80
2019-06-08T07:56:46.869Z,16.99
2019-06-08T07:59:17.256Z,16.99
2019-06-08T08:01:44.824Z,17.14
2019-06-08T08:04:12.714Z,17.14
2019-06-08T08:06:44.821Z,17.27
2019-06-08T08:09:12.435Z,17.27
2019-06-08T08:11:40.297Z,17.27
2019-06-08T08:14:07.868Z,17.37
2019-06-08T08:16:35.332Z,17.30
2019-06-08T08:19:03.176Z,17.30
2019-06-08T08:21:30.774Z,17.39
2019-06-08T08:24:00.243Z,17.36
2019-06-08T08:26:34.247Z,17.35
2019-06-08T08:29:03.062Z,17.35
2019-06-08T08:31:29.365Z,17.32
2019-06-08T08:34:04.393Z,17.32
2019-06-08T08:36:29.088Z,17.46
2019-06-08T08:39:00.230Z,17.46
2019-06-08T08:41:32.752Z,17.51
2019-06-08T08:44:02.847Z,17.43
2019-06-08T08:46:29.436Z,17.39
2019-06-08T08:49:05.973Z,17.35
2019-06-08T08:51:28.686Z,17.35
2019-06-08T08:54:02.017Z,17.33
2019-06-08T08:56:28.251Z,17.33
2019-06-08T08:58:59.155Z,17.35
2019-06-08T09:01:28.773Z,17.40
2019-06-08T09:04:00.934Z,17.40
2019-06-08T09:06:27.824Z,17.39
2019-06-08T09:08:55.855Z,17.37
2019-06-08T09:11:29.898Z,17.45
2019-06-08T09:13:59.285Z,17.55
2019-06-08T09:16:30.600Z,17.56
2019-06-08T09:19:04.077Z,17.49
2019-06-08T09:21:33.618Z,17.51
2019-06-08T09:24:03.861Z,17.61
2019-06-08T09:26:31.409Z,17.88
2019-06-08T09:29:05.023Z,17.88
2019-06-08T09:31:31.560Z,18.12
2019-06-08T09:34:08.623Z,18.00
2019-06-08T09:36:28.846Z,18.00
2019-06-08T09:38:59.640Z,17.83
2019-06-08T09:41:30.879Z,17.83
2019-06-08T09:43:58.194Z,17.84
2019-06-08T09:46:27.685Z,17.88
2019-06-08T09:49:07.626Z,18.07
2019-06-08T09:51:30.121Z,18.28
2019-06-08T09:54:03.736Z,18.58
2019-06-08T09:56:30.075Z,18.88
2019-06-08T09:59:01.261Z,19.16
2019-06-08T10:01:30.216Z,19.29
2019-06-08T10:04:00.848Z,19.33
2019-06-08T10:06:27.271Z,19.54
2019-06-08T10:08:56.231Z,19.84
2019-06-08T10:11:27.927Z,19.84
2019-06-08T10:13:54.729Z,20.00
2019-06-08T10:16:32.335Z,20.00
2019-06-08T10:19:03.584Z,19.79
2019-06-08T10:21:33.106Z,19.54
2019-06-08T10:24:02.723Z,19.36
2019-06-08T10:26:30.155Z,19.37
2019-06-08T10:29:03.623Z,19.32
2019-06-08T10:31:39.847Z,19.49
2019-06-08T10:34:03.597Z,19.74
2019-06-08T10:36:31.379Z,19.74
2019-06-08T10:39:02.768Z,19.92
2019-06-08T10:41:28.427Z,19.65
2019-06-08T10:43:57.127Z,19.65
2019-06-08T10:46:25.053Z,19.44
2019-06-08T10:48:53.053Z,19.45
2019-06-08T10:51:20.698Z,19.45
2019-06-08T10:53:52.702Z,19.43
2019-06-08T10:56:18.824Z,19.35
2019-06-08T10:58:49.474Z,19.25
2019-06-08T11:01:18.598Z,19.15
2019-06-08T11:03:45.281Z,19.05
2019-06-08T11:06:13.574Z,19.18
2019-06-08T11:08:41.622Z,19.18
2019-06-08T11:11:12.131Z,19.13
2019-06-08T11:13:39.721Z,19.17
2019-06-08T11:16:12.794Z,19.41
2019-06-08T11:18:39.112Z,19.41
2019-06-08T11:21:09.867Z,19.73
2019-06-08T11:23:41.594Z,20.15
2019-06-08T11:26:19.159Z,20.36
2019-06-08T11:28:40.345Z,20.37
2019-06-08T11:31:11.963Z,21.26
2019-06-08T11:33:39.050Z,21.26
2019-06-08T11:36:12.722Z,22.14
2019-06-08T11:38:38.222Z,22.39
2019-06-08T11:41:13.047Z,21.83
2019-06-08T11:43:38.163Z,21.17
2019-06-08T11:46:06.643Z,20.57
2019-06-08T11:48:34.291Z,20.57
2019-06-08T11:51:06.701Z,21.22
2019-06-08T11:53:31.397Z,22.24
2019-06-08T11:56:02.690Z,22.24
2019-06-08T11:58:30.739Z,22.17
2019-06-08T12:01:01.903Z,21.98
2019-06-08T12:03:30.455Z,21.56
2019-06-08T12:05:58.352Z,21.39
2019-06-08T12:08:29.153Z,21.44
2019-06-08T12:11:01.245Z,21.60
2019-06-08T12:13:27.787Z,21.17
2019-06-08T12:15:55.764Z,20.74
2019-06-08T12:18:23.372Z,20.74
2019-06-08T12:20:50.907Z,21.14
2019-06-08T12:23:21.786Z,21.67
2019-06-08T12:25:49.397Z,21.38
2019-06-08T12:28:17.886Z,21.38
2019-06-08T12:30:47.693Z,21.08
2019-06-08T12:33:22.832Z,20.71
2019-06-08T12:35:49.687Z,20.33
2019-06-08T12:38:18.938Z,19.59
2019-06-08T12:40:49.605Z,19.37
2019-06-08T12:43:18.911Z,19.37
2019-06-08T12:45:49.085Z,19.63
2019-06-08T12:48:22.930Z,19.63
2019-06-08T12:50:47.972Z,20.07
2019-06-08T12:53:23.196Z,20.36
2019-06-08T12:55:51.104Z,20.31
2019-06-08T12:58:21.983Z,20.52
2019-06-08T13:00:50.453Z,20.52
2019-06-08T13:03:21.062Z,20.58
2019-06-08T13:05:48.669Z,20.58
2019-06-08T13:08:20.063Z,20.12
2019-06-08T13:10:50.176Z,19.51
2019-06-08T13:13:19.941Z,19.51
2019-06-08T13:15:48.398Z,19.58
2019-06-08T13:18:17.641Z,19.73
2019-06-08T13:20:45.363Z,21.72
2019-06-08T13:23:13.235Z,22.67
2019-06-08T13:25:43.820Z,22.67
2019-06-08T13:28:15.205Z,22.88
2019-06-08T13:30:39.922Z,22.62
2019-06-08T13:33:08.099Z,22.07
2019-06-08T13:35:35.946Z,21.58
2019-06-08T13:38:03.787Z,21.91
2019-06-08T13:40:31.354Z,22.62
2019-06-08T13:42:59.059Z,22.51
2019-06-08T13:45:28.040Z,22.30
2019-06-08T13:47:55.650Z,22.94
2019-06-08T13:50:25.281Z,23.47
2019-06-08T13:52:53.090Z,23.51
2019-06-08T13:55:40.390Z,24.05
2019-06-08T13:57:54.173Z,24.05
2019-06-08T14:00:23.676Z,23.58
2019-06-08T14:02:51.986Z,22.87
2019-06-08T14:05:25.756Z,22.87
2019-06-08T14:07:54.912Z,22.11
2019-06-08T14:10:24.099Z,21.68
2019-06-08T14:12:55.074Z,21.40
2019-06-08T14:15:23.408Z,21.37
2019-06-08T14:17:54.029Z,21.52
2019-06-08T14:20:24.196Z,22.04
2019-06-08T14:22:53.997Z,22.34
2019-06-08T14:25:22.953Z,22.63
2019-06-08T14:27:51.151Z,21.46
2019-06-08T14:30:20.551Z,21.46
2019-06-08T14:32:50.814Z,21.13
2019-06-08T14:35:20.926Z,22.15
2019-06-08T14:37:48.178Z,23.32
2019-06-08T14:40:17.221Z,24.20
2019-06-08T14:42:44.886Z,24.35
2019-06-08T14:45:12.340Z,23.40
2019-06-08T14:47:40.197Z,23.17
2019-06-08T14:50:08.058Z,22.71
2019-06-08T14:52:37.938Z,22.63
2019-06-08T14:55:18.740Z,22.51
2019-06-08T14:57:48.173Z,22.51
2019-06-08T15:00:18.834Z,22.16
2019-06-08T15:02:45.294Z,21.55
2019-06-08T15:05:13.227Z,20.64
2019-06-08T15:07:41.172Z,20.64
2019-06-08T15:10:28.039Z,20.72
2019-06-08T15:12:57.581Z,21.86
2019-06-08T15:15:25.698Z,21.86
2019-06-08T15:17:53.916Z,23.53
2019-06-08T15:20:21.983Z,24.97
2019-06-08T15:22:49.524Z,24.97
2019-06-08T15:25:20.496Z,24.51
2019-06-08T15:27:48.390Z,23.29
2019-06-08T15:30:21.117Z,22.54
2019-06-08T15:32:49.660Z,22.54
2019-06-08T15:35:18.144Z,22.05
2019-06-08T15:37:47.748Z,20.90
2019-06-08T15:40:17.562Z,20.90
2019-06-08T15:42:44.543Z,20.41
2019-06-08T15:45:13.223Z,18.86
2019-06-08T15:47:44.094Z,18.86
2019-06-08T15:50:13.759Z,17.06
2019-06-08T15:52:41.390Z,15.22
2019-06-08T15:55:11.255Z,14.83
2019-06-08T15:57:41.017Z,14.63
2019-06-08T16:00:10.140Z,15.10
2019-06-08T16:02:37.295Z,15.10
2019-06-08T16:05:04.928Z,17.03
2019-06-08T16:07:35.702Z,17.03
2019-06-08T16:10:03.682Z,18.47
2019-06-08T16:12:33.057Z,19.59
2019-06-08T16:15:00.482Z,20.94
2019-06-08T16:17:29.245Z,20.94
2019-06-08T16:19:56.874Z,21.84
2019-06-08T16:22:27.623Z,21.84
2019-06-08T16:24:55.557Z,22.05
2019-06-08T16:27:23.131Z,20.88
2019-06-08T16:29:50.989Z,20.07
2019-06-08T16:32:18.851Z,19.39
2019-06-08T16:34:46.446Z,19.39
2019-06-08T16:37:18.667Z,18.28
2019-06-08T16:39:46.597Z,18.28
2019-06-08T16:42:14.504Z,17.94
2019-06-08T16:44:43.508Z,17.50
2019-06-08T16:47:16.019Z,17.50
2019-06-08T16:49:43.630Z,17.37
2019-06-08T16:52:11.233Z,17.19
2019-06-08T16:54:44.996Z,17.19
2019-06-08T16:57:16.052Z,17.14
2019-06-08T16:59:39.354Z,17.21
2019-06-08T17:02:07.255Z,17.25
2019-06-08T17:04:37.211Z,17.23
2019-06-08T17:07:04.801Z,17.14
2019-06-08T17:09:34.145Z,17.13
2019-06-08T17:12:02.082Z,17.13
2019-06-08T17:14:29.986Z,17.12
2019-06-08T17:16:57.901Z,17.15
2019-06-08T17:19:25.774Z,17.15
2019-06-08T17:21:53.390Z,17.19
2019-06-08T17:24:21.395Z,17.19
2019-06-08T17:26:48.981Z,17.25
2019-06-08T17:29:19.489Z,17.30
2019-06-08T17:31:51.224Z,17.30
2019-06-08T17:34:40.290Z,17.26
2019-06-08T17:37:07.857Z,17.26
2019-06-08T17:39:42.114Z,16.96
2019-06-08T17:42:11.984Z,16.75
2019-06-08T17:44:40.370Z,16.75
2019-06-08T17:47:08.253Z,16.46
2019-06-08T17:49:43.931Z,16.46
2019-06-08T17:52:07.378Z,16.40
2019-06-08T17:54:35.187Z,16.36
2019-06-08T17:57:04.417Z,16.33
2019-06-08T17:59:35.302Z,16.35
2019-06-08T18:02:01.502Z,16.35
2019-06-08T18:04:40.978Z,16.35
2019-06-08T18:07:08.822Z,16.36
2019-06-08T18:09:40.682Z,16.39
2019-06-08T18:12:08.326Z,16.38
2019-06-08T18:14:40.473Z,16.35
2019-06-08T18:17:13.425Z,16.28
2019-06-08T18:19:46.206Z,16.22
2019-06-08T18:22:18.420Z,16.16
2019-06-08T18:24:44.665Z,16.14
2019-06-08T18:27:12.445Z,16.18
2019-06-08T18:29:44.414Z,16.17
2019-06-08T18:32:12.754Z,16.12
2019-06-08T18:34:41.539Z,15.91
2019-06-08T18:37:09.591Z,15.91
2019-06-08T18:39:40.905Z,15.74
2019-06-08T18:42:10.471Z,15.65
2019-06-08T18:44:40.746Z,15.65
2019-06-08T18:47:09.421Z,15.57
2019-06-08T18:49:40.164Z,15.49
2019-06-08T18:52:09.373Z,15.41
2019-06-08T18:54:38.461Z,15.34
2019-06-08T18:57:17.661Z,15.26
2019-06-08T18:59:44.318Z,15.19
2019-06-08T19:02:08.554Z,15.13
2019-06-08T19:04:37.776Z,15.07
2019-06-08T19:07:07.984Z,14.94
2019-06-08T19:09:53.200Z,14.89
2019-06-08T19:12:20.820Z,14.89
2019-06-08T19:14:51.954Z,14.82
2019-06-08T19:17:21.175Z,14.71
2019-06-08T19:19:52.403Z,14.65
2019-06-08T19:22:23.378Z,14.65
2019-06-08T19:24:50.990Z,14.63
2019-06-08T19:27:18.611Z,14.64
2019-06-08T19:29:47.573Z,14.64
2019-06-08T19:32:17.067Z,14.65
2019-06-08T19:34:47.722Z,14.67
2019-06-08T19:37:17.240Z,14.70
2019-06-08T19:39:46.441Z,14.68
2019-06-08T19:42:35.570Z,14.67
2019-06-08T19:45:04.884Z,14.67
2019-06-08T19:47:24.110Z,14.65
2019-06-08T19:49:57.789Z,14.65
2019-06-08T19:52:25.430Z,14.66
2019-06-08T19:54:54.035Z,14.67
2019-06-08T19:57:21.729Z,14.64
2019-06-08T19:59:49.684Z,14.63
2019-06-08T20:02:17.764Z,14.63
2019-06-08T20:04:47.247Z,14.62
2019-06-08T20:07:17.861Z,14.59
2019-06-08T20:09:47.592Z,14.59
2019-06-08T20:12:18.629Z,14.57
2019-06-08T20:14:48.424Z,14.55
2019-06-08T20:17:17.203Z,14.55
2019-06-08T20:19:50.816Z,14.56
2019-06-08T20:22:18.426Z,14.54
2019-06-08T20:24:52.087Z,14.50
2019-06-08T20:27:20.472Z,14.47
2019-06-08T20:29:49.692Z,14.46
2019-06-08T20:32:18.115Z,14.46
2019-06-08T20:34:49.049Z,14.43
2019-06-08T20:37:14.887Z,14.43
2019-06-08T20:39:59.604Z,14.43
2019-06-08T20:42:19.147Z,14.43
2019-06-08T20:44:48.669Z,14.43
2019-06-08T20:47:20.379Z,14.41
2019-06-08T20:49:48.899Z,14.39
2019-06-08T20:52:14.626Z,14.33
2019-06-08T20:54:42.785Z,14.27
2019-06-08T20:57:10.498Z,14.23
2019-06-08T20:59:40.049Z,14.23
2019-06-08T21:02:08.532Z,14.18
2019-06-08T21:04:39.302Z,14.12
2019-06-08T21:07:13.982Z,14.12
2019-06-08T21:09:41.542Z,14.07
2019-06-08T21:12:09.131Z,14.03
2019-06-08T21:14:37.985Z,14.00
2019-06-08T21:17:07.616Z,13.97
2019-06-08T21:19:37.033Z,13.92
2019-06-08T21:22:08.193Z,13.92
2019-06-08T21:24:53.995Z,13.87
2019-06-08T21:27:23.022Z,13.85
2019-06-08T21:29:59.359Z,13.79
2019-06-08T21:32:21.723Z,13.79
2019-06-08T21:34:52.018Z,13.75
2019-06-08T21:37:20.553Z,13.71
2019-06-08T21:39:55.301Z,13.71
2019-06-08T21:42:23.564Z,13.70
2019-06-08T21:44:59.415Z,13.69
2019-06-08T21:47:27.188Z,13.69
2019-06-08T21:49:57.490Z,13.70
2019-06-08T21:52:30.102Z,13.69
2019-06-08T21:55:03.952Z,13.69
2019-06-08T21:57:33.582Z,13.65
2019-06-08T22:00:22.019Z,13.65
2019-06-08T22:02:37.451Z,13.65
2019-06-08T22:05:04.898Z,13.63
2019-06-08T22:07:32.467Z,13.60
2019-06-08T22:10:07.838Z,13.57
2019-06-08T22:12:39.862Z,13.57
2019-06-08T22:15:04.653Z,13.56
2019-06-08T22:17:32.457Z,13.52
2019-06-08T22:20:10.167Z,13.52
2019-06-08T22:22:29.174Z,13.49
2019-06-08T22:25:08.241Z,13.49
2019-06-08T22:27:37.938Z,13.47
2019-06-08T22:30:13.356Z,13.45
2019-06-08T22:32:38.589Z,13.44
2019-06-08T22:35:08.007Z,13.44
2019-06-08T22:37:37.951Z,13.40
2019-06-08T22:40:07.938Z,13.40
2019-06-08T22:42:40.422Z,13.34
2019-06-08T22:45:09.339Z,13.34
2019-06-08T22:47:38.748Z,13.33
2019-06-08T22:50:09.503Z,13.31
2019-06-08T22:52:37.621Z,13.30
2019-06-08T22:55:09.704Z,13.29
2019-06-08T22:57:40.986Z,13.28
2019-06-08T23:00:17.263Z,13.28
2019-06-08T23:02:40.122Z,13.28
2019-06-08T23:05:09.378Z,13.32
2019-06-08T23:07:37.502Z,13.32
2019-06-08T23:10:09.078Z,13.30
2019-06-08T23:12:38.172Z,13.30
2019-06-08T23:15:07.767Z,13.29
2019-06-08T23:17:38.314Z,13.26
2019-06-08T23:20:06.192Z,13.22
2019-06-08T23:22:34.035Z,13.21
2019-06-08T23:25:08.880Z,13.21
2019-06-08T23:27:34.630Z,13.17
2019-06-08T23:30:06.075Z,13.17
2019-06-08T23:32:32.717Z,13.12
2019-06-08T23:35:00.741Z,13.09
2019-06-08T23:37:28.315Z,13.09
2019-06-08T23:39:57.969Z,13.06
2019-06-08T23:42:27.322Z,13.03
2019-06-08T23:44:54.760Z,13.00
2019-06-08T23:47:27.467Z,13.00
2019-06-08T23:49:55.079Z,12.96
2019-06-08T23:52:22.526Z,12.91
2019-06-08T23:54:50.321Z,12.91
2019-06-08T23:57:18.055Z,12.89
2019-06-08T23:59:47.735Z,12.87
